< < Back
Terminal Aerodrome Forecast


Current Version              Previous Versions:   1  2  3  4  5  6  7  8  9  

Terminal Aerodrome Forecast

844
FTUS44 KMRX 111120
TAFCHA
TAF
KCHA 111120Z 1112/1212 VRB04KT P6SM BKN040
     FM112100 VRB03KT P6SM SCT040 BKN200
     FM120700 VRB03KT P6SM BKN035 OVC150=

Latest METAR

820
SAUS80 KWBC 112100 RRA
MTRCHA
METAR KCHA 112053Z 07004KT 10SM CLR 08/M06 A3017 RMK AO2 SLP220
T00781061 55007


USA.gov is the U.S. government's official web portal to all federal, state and local government web resources and services.